createdAt,value
2022-12-26T00:25:32.392Z,100679.00
2022-12-26T00:28:00.077Z,100671.75
2022-12-26T00:30:27.718Z,100680.47
2022-12-26T00:32:55.364Z,100682.31
2022-12-26T00:35:22.987Z,100684.16
2022-12-26T00:37:50.610Z,100685.00
2022-12-26T00:40:18.388Z,100683.16
2022-12-26T00:42:47.489Z,100691.44
2022-12-26T00:52:09.619Z,100711.34
2022-12-26T00:54:37.321Z,100706.13
2022-12-26T00:57:05.006Z,100695.34
2022-12-26T00:59:49.525Z,100687.28
2022-12-26T01:02:31.078Z,100688.31
2022-12-26T01:04:58.807Z,100696.41
2022-12-26T01:07:26.453Z,100693.72
2022-12-26T01:09:54.089Z,100692.84
2022-12-26T01:12:21.719Z,100692.03
2022-12-26T01:14:57.836Z,100697.41
2022-12-26T01:17:25.473Z,100702.81
2022-12-26T01:19:53.276Z,100701.97
2022-12-26T01:22:20.941Z,100696.59
2022-12-26T01:24:48.647Z,100694.94
2022-12-26T01:27:16.283Z,100696.78
2022-12-26T01:36:49.263Z,100713.59
2022-12-26T01:39:17.066Z,100713.59
2022-12-26T01:41:44.695Z,100703.63
2022-12-26T01:44:27.178Z,100696.41
2022-12-26T01:46:54.859Z,100706.31
2022-12-26T01:49:23.112Z,100704.50
2022-12-26T01:51:53.216Z,100705.31
2022-12-26T01:54:40.535Z,100703.63
2022-12-26T01:57:10.623Z,100701.78
2022-12-26T01:59:38.566Z,100700.09
2022-12-26T02:02:06.284Z,100701.97
2022-12-26T02:04:52.783Z,100698.47
2022-12-26T02:07:22.027Z,100703.22
2022-12-26T02:09:49.680Z,100698.66
2022-12-26T02:12:35.018Z,100709.44
2022-12-26T02:15:06.005Z,100704.03
2022-12-26T02:17:33.675Z,100704.03
2022-12-26T02:20:04.098Z,100701.56
2022-12-26T02:22:45.774Z,100708.59
2022-12-26T02:25:19.632Z,100702.38
2022-12-26T02:27:50.526Z,100709.66
2022-12-26T02:30:33.600Z,100698.00
2022-12-26T02:33:07.162Z,100697.19
2022-12-26T02:35:48.219Z,100697.19
2022-12-26T02:38:18.599Z,100711.47
2022-12-26T02:40:48.895Z,100689.09
2022-12-26T02:43:18.315Z,100690.97
2022-12-26T02:46:06.863Z,100689.91
2022-12-26T02:48:37.038Z,100686.41
2022-12-26T02:51:24.985Z,100675.44
2022-12-26T02:54:12.408Z,100679.78
2022-12-26T02:56:58.291Z,100692.44
2022-12-26T02:59:55.519Z,100692.44
2022-12-26T03:02:45.071Z,100686.00
2022-12-26T03:05:31.647Z,100684.34
2022-12-26T03:08:16.712Z,100688.69
2022-12-26T03:11:01.606Z,100695.13
2022-12-26T03:13:30.008Z,100689.91
2022-12-26T03:16:15.769Z,100682.69
2022-12-26T03:18:58.036Z,100686.41
2022-12-26T03:21:28.968Z,100690.13
2022-12-26T03:23:56.684Z,100694.47
2022-12-26T03:26:40.374Z,100683.72
2022-12-26T03:29:26.447Z,100685.78
2022-12-26T03:31:54.108Z,100684.09
2022-12-26T03:34:23.165Z,100679.53
2022-12-26T03:36:55.173Z,100685.78
2022-12-26T03:39:43.954Z,100684.09
2022-12-26T03:42:29.396Z,100686.81
2022-12-26T03:45:15.785Z,100684.09
2022-12-26T03:48:02.075Z,100681.63
2022-12-26T03:50:50.280Z,100682.66
2022-12-26T03:53:36.580Z,100682.47
2022-12-26T03:56:22.952Z,100691.19
2022-12-26T03:59:08.798Z,100682.25
2022-12-26T04:01:53.789Z,100687.44
2022-12-26T04:04:38.746Z,100682.06
2022-12-26T04:07:26.536Z,100685.56
2022-12-26T04:10:13.771Z,100688.09
2022-12-26T04:12:58.626Z,100689.09
2022-12-26T04:15:45.260Z,100690.97
2022-12-26T04:18:31.943Z,100699.06
2022-12-26T04:21:05.642Z,100698.22
2022-12-26T04:23:53.617Z,100701.75
2022-12-26T04:26:39.715Z,100694.06
2022-12-26T04:29:24.635Z,100710.03
2022-12-26T04:32:10.559Z,100711.06
2022-12-26T04:34:56.940Z,100710.22
2022-12-26T04:37:42.905Z,100713.75
2022-12-26T04:40:30.737Z,100713.97
2022-12-26T04:43:47.438Z,100709.41
2022-12-26T04:46:03.500Z,100707.72
2022-12-26T04:48:48.516Z,100713.13
2022-12-26T04:51:16.203Z,100707.72
2022-12-26T04:53:46.277Z,100707.72
2022-12-26T04:56:17.194Z,100708.78
2022-12-26T04:58:44.829Z,100722.25
2022-12-26T05:01:48.134Z,100723.91
2022-12-26T05:04:33.041Z,100716.03
2022-12-26T05:07:18.095Z,100718.50
2022-12-26T05:09:45.864Z,100726.41
2022-12-26T05:12:14.877Z,100724.53
2022-12-26T05:14:42.530Z,100742.56
2022-12-26T05:17:28.005Z,100733.44
2022-12-26T05:20:15.109Z,100741.53
2022-12-26T05:23:00.775Z,100739.69
2022-12-26T05:25:46.161Z,100739.69
2022-12-26T05:28:32.988Z,100738.84
2022-12-26T05:31:01.948Z,100746.09
2022-12-26T05:33:47.183Z,100743.63
2022-12-26T05:36:14.839Z,100739.06
2022-12-26T05:38:42.543Z,100734.69
2022-12-26T05:41:10.180Z,100744.63
2022-12-26T05:43:39.210Z,100739.25
2022-12-26T05:46:06.856Z,100734.06
2022-12-26T05:48:34.561Z,100741.09
2022-12-26T05:51:02.421Z,100742.16
2022-12-26T05:53:30.085Z,100739.25
2022-12-26T05:55:57.739Z,100737.59
2022-12-26T05:58:25.360Z,100742.16
2022-12-26T06:00:54.383Z,100738.41
2022-12-26T06:03:22.292Z,100736.75
2022-12-26T06:05:50.023Z,100738.41
2022-12-26T06:08:17.698Z,100749.19
2022-12-26T06:10:45.335Z,100742.75
2022-12-26T06:13:12.971Z,100740.91
2022-12-26T06:15:40.695Z,100744.44
2022-12-26T06:18:09.776Z,100741.75
2022-12-26T06:20:39.488Z,100749.63
2022-12-26T06:23:07.124Z,100752.13
2022-12-26T06:25:34.866Z,100746.75
2022-12-26T06:28:02.555Z,100752.13
2022-12-26T06:30:30.275Z,100755.88
2022-12-26T06:32:57.949Z,100748.38
2022-12-26T06:35:27.031Z,100751.09
2022-12-26T06:37:54.645Z,100753.78
2022-12-26T06:40:22.309Z,100752.94
2022-12-26T06:42:49.908Z,100754.81
2022-12-26T06:45:17.502Z,100753.78
2022-12-26T06:47:46.445Z,100761.03
2022-12-26T06:50:14.547Z,100761.25
2022-12-26T06:52:43.609Z,100766.66
2022-12-26T06:55:11.336Z,100767.47
2022-12-26T06:57:39.025Z,100766.66
2022-12-26T07:00:08.190Z,100766.66
2022-12-26T07:02:35.915Z,100765.78
2022-12-26T07:05:03.676Z,100770.16
2022-12-26T07:07:31.341Z,100772.03
2022-12-26T07:10:00.596Z,100771.00
2022-12-26T07:12:28.245Z,100783.66
2022-12-26T07:15:01.329Z,100782.81
2022-12-26T07:17:29.798Z,100787.34
2022-12-26T07:19:57.469Z,100794.44
2022-12-26T07:22:25.133Z,100788.22
2022-12-26T07:24:52.746Z,100784.47
2022-12-26T07:27:21.884Z,100793.38
2022-12-26T07:29:49.641Z,100790.50
2022-12-26T07:32:17.308Z,100789.47
2022-12-26T07:34:45.051Z,100792.16
2022-12-26T07:37:12.791Z,100786.75
2022-12-26T07:39:40.593Z,100795.69
2022-12-26T07:42:08.257Z,100791.97
2022-12-26T07:44:39.207Z,100793.81
2022-12-26T07:47:06.928Z,100792.97
2022-12-26T07:49:34.611Z,100800.25
2022-12-26T07:52:02.398Z,100801.91
2022-12-26T07:54:30.086Z,100812.69
2022-12-26T07:57:21.950Z,100812.69
2022-12-26T07:59:46.788Z,100801.06
2022-12-26T08:02:15.224Z,100800.25
2022-12-26T08:04:43.059Z,100800.25
2022-12-26T08:07:11.046Z,100801.91
2022-12-26T08:09:42.799Z,100793.81
2022-12-26T08:12:10.723Z,100795.69
2022-12-26T08:14:38.468Z,100802.75
2022-12-26T08:17:07.624Z,100800.88
2022-12-26T08:19:35.629Z,100799.00
2022-12-26T08:22:03.269Z,100803.38
2022-12-26T08:24:31.532Z,100806.06
2022-12-26T08:26:59.636Z,100808.56
2022-12-26T08:29:27.817Z,100805.88
2022-12-26T08:31:55.420Z,100806.69
2022-12-26T08:34:24.733Z,100809.41
2022-12-26T08:36:52.513Z,100815.44
2022-12-26T08:39:20.727Z,100822.28
2022-12-26T08:41:48.369Z,100814.84
2022-12-26T08:44:27.329Z,100808.41
2022-12-26T08:46:55.891Z,100812.75
2022-12-26T08:49:27.770Z,100815.47
2022-12-26T08:51:55.390Z,100813.41
2022-12-26T08:54:24.552Z,100817.78
2022-12-26T08:56:52.212Z,100811.53
2022-12-26T08:59:19.940Z,100810.72
2022-12-26T09:01:48.545Z,100816.09
2022-12-26T09:04:16.368Z,100816.09
2022-12-26T09:06:45.902Z,100813.41
2022-12-26T09:09:13.528Z,100813.22
2022-12-26T09:11:41.318Z,100802.44
2022-12-26T09:14:09.621Z,100805.97
2022-12-26T09:16:50.602Z,100796.81
2022-12-26T09:19:19.496Z,100798.28
2022-12-26T09:21:48.597Z,100791.06
2022-12-26T09:24:18.087Z,100788.16
2022-12-26T09:26:46.325Z,100781.53
2022-12-26T09:29:14.755Z,100780.50
2022-12-26T09:32:11.270Z,100780.50
2022-12-26T09:34:38.929Z,100771.41
2022-12-26T09:37:08.572Z,100763.09
2022-12-26T09:39:36.195Z,100761.69
2022-12-26T09:42:06.318Z,100763.16
2022-12-26T09:44:38.279Z,100770.84
2022-12-26T09:47:08.949Z,100776.88
2022-12-26T09:49:37.812Z,100768.38
2022-12-26T09:52:06.678Z,100769.00
2022-12-26T09:54:36.862Z,100757.16
2022-12-26T09:57:09.853Z,100755.31
2022-12-26T09:59:43.350Z,100752.22
2022-12-26T10:02:12.083Z,100747.44
2022-12-26T10:04:40.264Z,100743.50
2022-12-26T10:07:11.724Z,100739.56
2022-12-26T10:09:59.797Z,100737.50
2022-12-26T10:12:34.502Z,100745.41
2022-12-26T10:15:07.605Z,100739.59
2022-12-26T10:17:37.210Z,100744.41
2022-12-26T10:20:09.725Z,100733.38
2022-12-26T10:22:42.429Z,100732.38
2022-12-26T10:25:18.893Z,100732.56
2022-12-26T10:27:52.348Z,100734.03
2022-12-26T10:30:22.520Z,100731.53
2022-12-26T10:32:51.138Z,100724.91
2022-12-26T10:35:22.399Z,100726.81
2022-12-26T10:37:50.626Z,100723.47
2022-12-26T10:40:20.735Z,100718.28
2022-12-26T10:42:49.386Z,100709.59
2022-12-26T10:45:18.226Z,100709.19
2022-12-26T10:47:46.366Z,100714.16
2022-12-26T10:50:16.501Z,100722.47
2022-12-26T10:52:44.263Z,100723.09
2022-12-26T10:55:29.398Z,100714.59
2022-12-26T10:58:01.285Z,100719.56
2022-12-26T11:00:31.259Z,100716.69
2022-12-26T11:03:05.918Z,100711.06
2022-12-26T11:08:23.302Z,100700.88
2022-12-26T11:11:03.066Z,100689.03
2022-12-26T11:13:32.286Z,100695.28
2022-12-26T11:16:00.108Z,100696.72
2022-12-26T11:18:30.190Z,100706.47
2022-12-26T11:20:57.861Z,100702.75
2022-12-26T11:23:27.668Z,100705.22
2022-12-26T11:25:55.937Z,100702.34
2022-12-26T11:28:31.278Z,100699.41
2022-12-26T11:31:01.862Z,100694.84
2022-12-26T11:33:31.019Z,100683.63
2022-12-26T11:36:06.533Z,100685.91
2022-12-26T11:38:44.781Z,100675.72
2022-12-26T11:41:31.566Z,100660.09
2022-12-26T11:44:01.292Z,100672.38
2022-12-26T11:46:37.967Z,100666.97
2022-12-26T11:49:06.352Z,100667.81
2022-12-26T11:51:34.968Z,100673.22
2022-12-26T11:54:14.597Z,100670.53
2022-12-26T11:56:42.296Z,100672.59
2022-12-26T11:59:14.471Z,100667.19
2022-12-26T12:01:43.612Z,100666.56
2022-12-26T12:04:11.959Z,100664.09
2022-12-26T12:06:43.476Z,100660.53
2022-12-26T12:09:14.929Z,100657.25
2022-12-26T12:11:43.615Z,100651.22
2022-12-26T12:14:29.863Z,100656.63
2022-12-26T12:17:00.625Z,100660.34
2022-12-26T12:19:31.587Z,100660.34
2022-12-26T12:22:11.837Z,100673.25
2022-12-26T12:24:42.808Z,100663.47
2022-12-26T12:27:14.348Z,100670.94
2022-12-26T12:29:49.847Z,100666.59
2022-12-26T12:32:19.824Z,100670.34
2022-12-26T12:34:57.951Z,100670.34
2022-12-26T12:37:29.205Z,100667.00
2022-12-26T12:40:00.061Z,100672.41
2022-12-26T12:42:31.069Z,100665.38
2022-12-26T12:45:03.329Z,100670.78
2022-12-26T12:47:35.492Z,100662.03
2022-12-26T12:50:04.569Z,100652.25
2022-12-26T12:52:38.313Z,100651.66
2022-12-26T12:55:21.511Z,100655.38
2022-12-26T12:57:50.988Z,100659.13
2022-12-26T13:00:19.506Z,100651.03
2022-12-26T13:02:50.541Z,100654.16
2022-12-26T13:05:20.035Z,100657.88
2022-12-26T13:07:49.867Z,100653.72
2022-12-26T13:10:21.725Z,100661.00
2022-12-26T13:12:50.733Z,100662.06
2022-12-26T13:15:22.172Z,100665.78
2022-12-26T13:24:58.177Z,100655.38
2022-12-26T13:27:27.692Z,100661.22
2022-12-26T13:29:55.567Z,100668.50
2022-12-26T13:53:02.340Z,100655.19
2022-12-26T13:55:35.570Z,100648.13
2022-12-26T13:58:08.629Z,100655.41
2022-12-26T14:00:42.966Z,100655.59
2022-12-26T14:03:19.534Z,100657.47
2022-12-26T14:06:07.595Z,100654.97
2022-12-26T14:08:38.831Z,100671.38
2022-12-26T14:11:10.777Z,100667.00
2022-12-26T14:13:43.653Z,100675.31
2022-12-26T14:16:13.336Z,100676.31
2022-12-26T14:22:06.376Z,100667.81
2022-12-26T14:24:36.844Z,100665.31
2022-12-26T14:27:15.239Z,100667.19
2022-12-26T14:29:46.633Z,100673.66
2022-12-26T14:32:18.729Z,100671.97
2022-12-26T14:45:16.109Z,100666.16
2022-12-26T14:47:45.168Z,100672.38
2022-12-26T15:04:21.749Z,100650.16
2022-12-26T15:07:03.286Z,100645.81
2022-12-26T15:09:39.319Z,100646.84
2022-12-26T15:12:16.194Z,100642.50
2022-12-26T15:15:06.158Z,100644.38
2022-12-26T15:17:35.847Z,100651.59
2022-12-26T15:34:47.978Z,100630.03
2022-12-26T15:37:31.381Z,100632.53
2022-12-26T15:40:01.880Z,100636.25
2022-12-26T15:42:34.605Z,100623.81
2022-12-26T15:45:07.237Z,100631.91
2022-12-26T15:47:38.312Z,100629.19
2022-12-26T15:57:08.357Z,100618.59
2022-12-26T15:59:48.174Z,100623.16
2022-12-26T16:02:16.561Z,100617.78
2022-12-26T16:04:46.135Z,100613.44
2022-12-26T16:07:18.537Z,100607.19
2022-12-26T16:09:47.248Z,100610.91
2022-12-26T16:12:23.418Z,100613.81
2022-12-26T16:14:52.047Z,100610.28
2022-12-26T16:17:21.404Z,100605.13
2022-12-26T16:20:19.003Z,100607.81
2022-12-26T16:22:47.274Z,100606.38
2022-12-26T16:25:17.325Z,100602.63
2022-12-26T16:27:46.327Z,100606.38
2022-12-26T16:30:15.171Z,100608.22
2022-12-26T16:32:44.388Z,100610.94
2022-12-26T16:35:19.331Z,100603.84
2022-12-26T16:37:47.751Z,100607.59
2022-12-26T16:40:18.014Z,100610.31
2022-12-26T16:42:48.232Z,100620.03
2022-12-26T16:45:16.627Z,100618.38
2022-12-26T16:47:44.305Z,100621.09
2022-12-26T16:50:15.348Z,100616.72
2022-12-26T16:52:46.654Z,100622.09
2022-12-26T16:55:31.676Z,100617.56
2022-12-26T16:58:01.099Z,100612.38
2022-12-26T17:00:28.814Z,100618.59
2022-12-26T17:02:58.187Z,100610.50
2022-12-26T17:05:52.031Z,100613.19
2022-12-26T17:08:19.655Z,100608.03
2022-12-26T17:10:47.855Z,100617.94
2022-12-26T17:13:20.376Z,100618.81
2022-12-26T17:15:50.268Z,100618.19
2022-12-26T17:18:32.211Z,100616.31
2022-12-26T17:21:09.192Z,100619.19
2022-12-26T17:23:38.156Z,100613.78
2022-12-26T17:26:18.909Z,100609.66
2022-12-26T17:31:19.736Z,100613.38
2022-12-26T17:34:45.461Z,100603.41
2022-12-26T17:37:19.800Z,100599.06
2022-12-26T17:39:55.713Z,100601.78
2022-12-26T17:42:25.452Z,100597.41
2022-12-26T17:44:54.559Z,100600.94
2022-12-26T17:47:24.282Z,100590.16
2022-12-26T17:57:34.604Z,100586.00
2022-12-26T18:00:02.272Z,100581.44
2022-12-26T18:02:32.187Z,100584.13
2022-12-26T18:05:18.541Z,100586.00
2022-12-26T18:07:46.938Z,100576.88
2022-12-26T18:10:17.954Z,100580.63
2022-12-26T18:12:45.592Z,100577.28
2022-12-26T18:15:14.413Z,100578.94
2022-12-26T18:17:43.460Z,100584.31
2022-12-26T18:23:44.388Z,100577.28
2022-12-26T18:26:15.469Z,100579.34
2022-12-26T18:28:43.035Z,100591.81
2022-12-26T18:31:15.028Z,100579.34
2022-12-26T18:33:44.130Z,100579.34
2022-12-26T18:41:01.553Z,100578.13
2022-12-26T18:43:31.226Z,100571.88
2022-12-26T18:46:00.419Z,100570.41
2022-12-26T18:48:29.293Z,100565.66
2022-12-26T18:51:15.658Z,100567.72
2022-12-26T18:53:45.469Z,100572.09
2022-12-26T18:56:13.639Z,100561.31
2022-12-26T18:58:41.233Z,100566.06
2022-12-26T19:01:10.704Z,100562.53
2022-12-26T19:03:38.534Z,100561.50
2022-12-26T19:10:16.455Z,100565.00
2022-12-26T19:12:46.300Z,100564.19
2022-12-26T19:15:14.180Z,100561.50
2022-12-26T19:17:43.639Z,100562.31
2022-12-26T19:20:49.738Z,100555.28
2022-12-26T19:23:17.408Z,100565.00
2022-12-26T19:25:45.860Z,100557.97
2022-12-26T19:28:14.878Z,100559.03
2022-12-26T19:30:45.053Z,100561.72
2022-12-26T19:33:14.835Z,100560.03
2022-12-26T19:42:55.541Z,100547.59
2022-12-26T19:45:25.408Z,100553.16
2022-12-26T19:47:54.334Z,100553.16
2022-12-26T19:50:22.084Z,100551.50
2022-12-26T19:52:49.753Z,100540.09
2022-12-26T19:55:18.609Z,100543.59
2022-12-26T19:57:46.248Z,100543.59
2022-12-26T20:00:15.724Z,100549.00
2022-12-26T20:02:45.885Z,100542.78
2022-12-26T20:05:32.905Z,100549.22
2022-12-26T20:08:00.608Z,100545.72
2022-12-26T20:10:28.216Z,100561.03
2022-12-26T20:12:56.629Z,100560.00
2022-12-26T20:15:24.265Z,100563.53
2022-12-26T20:17:54.681Z,100562.47
2022-12-26T20:34:22.021Z,100566.41
2022-12-26T20:36:50.564Z,100544.03
2022-12-26T20:39:18.805Z,100551.09
2022-12-26T20:41:47.306Z,100547.53
2022-12-26T20:44:16.388Z,100547.78
2022-12-26T20:46:46.732Z,100549.41
2022-12-26T20:49:14.458Z,100551.91
2022-12-26T20:52:20.916Z,100558.13
2022-12-26T20:54:50.749Z,100549.84
2022-12-26T20:57:20.744Z,100550.69
2022-12-26T20:59:48.470Z,100546.94
2022-12-26T21:02:16.322Z,100551.31
2022-12-26T21:05:13.740Z,100548.63
2022-12-26T21:07:41.433Z,100544.06
2022-12-26T21:10:12.768Z,100541.97
2022-12-26T21:12:40.430Z,100541.97
2022-12-26T21:15:08.989Z,100551.75
2022-12-26T21:17:45.880Z,100544.50
2022-12-26T21:20:16.751Z,100549.88
2022-12-26T21:22:45.441Z,100553.22
2022-12-26T21:25:14.509Z,100564.19
2022-12-26T21:27:43.029Z,100562.13
2022-12-26T21:30:12.764Z,100568.34
2022-12-26T21:32:40.430Z,100571.03
2022-12-26T21:35:27.349Z,100560.88
2022-12-26T21:37:54.970Z,100568.97
2022-12-26T21:40:24.364Z,100564.41
2022-12-26T21:42:53.713Z,100561.50
2022-12-26T21:45:22.233Z,100567.75
2022-12-26T21:47:50.753Z,100562.34
2022-12-26T21:50:36.638Z,100564.00
2022-12-26T21:53:06.900Z,100572.94
2022-12-26T21:55:37.872Z,100570.25
2022-12-26T21:58:08.433Z,100570.25
2022-12-26T22:00:36.075Z,100564.84
2022-12-26T22:03:22.206Z,100564.84
2022-12-26T22:05:50.065Z,100568.38
2022-12-26T22:08:17.695Z,100559.44
2022-12-26T22:11:05.451Z,100558.59
2022-12-26T22:13:38.507Z,100567.53
2022-12-26T22:16:08.792Z,100565.88
2022-12-26T22:18:37.301Z,100564.84
2022-12-26T22:24:38.088Z,100559.44
2022-12-26T22:27:09.114Z,100558.59
2022-12-26T22:29:36.803Z,100559.44
2022-12-26T22:32:04.631Z,100561.09
2022-12-26T22:34:34.210Z,100558.59
2022-12-26T22:44:17.285Z,100545.75
2022-12-26T22:46:46.981Z,100551.97
2022-12-26T22:49:14.710Z,100546.56
2022-12-26T22:51:44.559Z,100546.56
2022-12-26T22:54:12.163Z,100547.41
2022-12-26T22:56:40.519Z,100549.06
2022-12-26T22:59:08.179Z,100553.66
2022-12-26T23:01:38.051Z,100553.66
2022-12-26T23:04:06.006Z,100551.97
2022-12-26T23:06:34.373Z,100549.06
2022-12-26T23:09:03.375Z,100545.56
2022-12-26T23:11:34.802Z,100548.25
2022-12-26T23:14:04.136Z,100540.97
2022-12-26T23:16:33.871Z,100549.91
2022-12-26T23:19:21.968Z,100540.97
2022-12-26T23:21:51.019Z,100534.75
2022-12-26T23:24:22.328Z,100533.72
2022-12-26T23:26:50.544Z,100528.31
2022-12-26T23:29:37.166Z,100525.63
2022-12-26T23:32:04.930Z,100544.50
2022-12-26T23:34:34.087Z,100540.75
2022-12-26T23:37:02.645Z,100540.75
2022-12-26T23:39:30.730Z,100540.75
2022-12-26T23:41:58.513Z,100540.75
2022-12-26T23:44:26.226Z,100548.84
2022-12-26T23:46:53.953Z,100547.00
2022-12-26T23:49:21.701Z,100549.69
2022-12-26T23:51:50.744Z,100546.16
2022-12-26T23:54:18.356Z,100538.06
2022-12-26T23:56:46.089Z,100529.97
2022-12-26T23:59:13.747Z,100532.47
